Time;durP1;ratioP1;P1;durP2;ratioP2;P2;SDS_P1;SDS_P2;PMS_P1;PMS_P2;Temp;Humidity;BMP_temperature;BMP_pressure;BME280_temperature;BME280_humidity;BME280_pressure;Samples;Min_cycle;Max_cycle;Signal;HPM_P1;HPM_P2
2022/09/04 00:00:09;;;;;;;2.53;0.28;;;;;;;14.92;32.41;101656.22;5078683;28;20510;-65
2022/09/04 00:03:07;;;;;;;0.80;0.17;;;;;;;14.97;32.44;101651.63;5079525;28;20113;-65
2022/09/04 00:05:38;;;;;;;4.22;0.30;;;;;;;14.94;32.21;101647.34;5076708;28;20066;-66
2022/09/04 00:08:12;;;;;;;2.05;0.20;;;;;;;14.72;32.64;101652.75;5077094;28;20410;-65
2022/09/04 00:10:49;;;;;;;0.75;0.20;;;;;;;14.80;32.81;101648.91;5094884;28;20523;-66
2022/09/04 00:13:21;;;;;;;0.65;0.20;;;;;;;14.64;32.84;101654.88;5075902;28;20056;-65
2022/09/04 00:15:51;;;;;;;;;;;;;;;14.64;32.75;101654.03;5078962;28;20046;-65
2022/09/04 00:18:29;;;;;;;0.73;0.28;;;;;;;14.52;33.02;101650.13;5072769;28;20006;-65
2022/09/04 00:21:21;;;;;;;2.50;0.75;;;;;;;14.66;32.99;101647.75;5079014;28;20038;-67
2022/09/04 00:23:54;;;;;;;0.47;0.20;;;;;;;14.71;32.68;101651.03;5077312;28;20078;-67
2022/09/04 00:26:41;;;;;;;2.08;0.30;;;;;;;14.53;33.28;101654.50;5078640;28;20094;-68
2022/09/04 00:29:18;;;;;;;1.23;0.13;;;;;;;14.30;33.40;101644.94;5078673;28;20101;-67
2022/09/04 00:31:51;;;;;;;0.82;0.50;;;;;;;14.37;33.40;101656.91;5076766;28;20035;-64
2022/09/04 00:34:51;;;;;;;0.47;0.20;;;;;;;14.39;33.46;101649.81;5093931;28;20039;-70
2022/09/04 00:37:22;;;;;;;3.45;0.30;;;;;;;14.30;33.82;101652.81;5091525;28;20063;-69
2022/09/04 00:39:55;;;;;;;3.13;0.20;;;;;;;14.29;33.70;101659.88;5076561;28;20036;-66
2022/09/04 00:42:40;;;;;;;0.70;0.30;;;;;;;14.26;33.76;101659.16;5076273;28;20091;-70
2022/09/04 00:45:26;;;;;;;1.42;0.40;;;;;;;14.18;33.83;101664.72;5078839;28;20035;-68
2022/09/04 00:48:13;;;;;;;0.50;0.20;;;;;;;14.27;33.70;101666.13;5076895;28;20044;-64
2022/09/04 00:50:45;;;;;;;4.47;0.47;;;;;;;14.36;33.68;101670.97;5075920;28;20024;-65
2022/09/04 00:53:10;;;;;;;1.13;0.20;;;;;;;14.34;33.43;101678.94;5077064;28;20385;-67
2022/09/04 00:56:14;;;;;;;2.05;0.20;;;;;;;14.42;33.49;101676.00;5090399;28;20414;-67
2022/09/04 00:58:51;;;;;;;1.83;0.32;;;;;;;14.29;33.66;101678.28;5074429;28;20070;-67
2022/09/04 01:01:27;;;;;;;0.52;0.20;;;;;;;14.33;33.81;101677.22;5075223;28;20035;-68
2022/09/04 01:04:07;;;;;;;8.40;0.30;;;;;;;14.36;33.83;101682.34;5076792;28;20040;-67
2022/09/04 01:06:48;;;;;;;0.63;0.20;;;;;;;14.42;33.69;101686.53;5077023;28;20242;-67
2022/09/04 01:09:29;;;;;;;1.70;0.30;;;;;;;14.44;33.87;101684.69;5075619;28;20044;-67
2022/09/04 01:12:03;;;;;;;3.10;0.28;;;;;;;14.41;33.85;101689.22;5077078;28;20530;-69
2022/09/04 01:14:54;;;;;;;6.55;0.60;;;;;;;14.38;33.74;101678.81;5076269;28;20043;-67
2022/09/04 01:17:21;;;;;;;2.80;0.20;;;;;;;14.31;34.06;101688.72;5076121;28;20404;-67
2022/09/04 01:20:05;;;;;;;1.80;0.40;;;;;;;14.27;34.21;101682.75;5072633;28;20044;-68
2022/09/04 01:22:53;;;;;;;0.75;0.28;;;;;;;14.13;34.66;101688.59;5076732;28;20047;-67
2022/09/04 01:25:55;;;;;;;2.72;0.40;;;;;;;14.12;34.81;101702.66;5075187;28;20038;-67
2022/09/04 01:28:32;;;;;;;1.07;0.20;;;;;;;14.15;34.62;101699.06;5074398;28;20035;-68
2022/09/04 01:31:10;;;;;;;1.20;0.20;;;;;;;14.23;34.38;101702.22;5077252;28;20675;-68
2022/09/04 01:33:53;;;;;;;1.35;0.20;;;;;;;14.21;34.82;101698.81;5076455;28;20567;-65
2022/09/04 01:36:29;;;;;;;0.88;0.65;;;;;;;14.10;34.84;101707.13;5075070;28;20055;-65
2022/09/04 01:38:58;;;;;;;1.00;0.32;;;;;;;14.06;34.84;101704.69;5073753;28;20617;-66
2022/09/04 01:41:27;;;;;;;2.80;0.20;;;;;;;14.05;35.21;101698.56;5076441;28;20476;-65
2022/09/04 01:43:52;;;;;;;1.10;0.47;;;;;;;13.89;35.57;101692.25;5076218;28;20500;-65
2022/09/04 01:46:36;;;;;;;0.70;0.32;;;;;;;13.89;35.64;101700.13;5076994;28;20042;-67
2022/09/04 01:49:06;;;;;;;0.70;0.40;;;;;;;13.74;35.94;101696.34;5076542;28;20507;-65
2022/09/04 01:51:55;;;;;;;1.65;0.30;;;;;;;13.69;36.17;101700.94;5075449;28;20483;-66
2022/09/04 01:55:02;;;;;;;5.90;0.40;;;;;;;13.61;36.26;101703.03;5076423;28;20063;-67
2022/09/04 01:57:33;;;;;;;0.22;0.10;;;;;;;13.59;36.69;101704.84;5070502;28;20793;-66
2022/09/04 02:00:21;;;;;;;0.50;0.20;;;;;;;13.46;36.79;101704.44;5075048;28;20036;-68
2022/09/04 02:03:12;;;;;;;1.05;0.20;;;;;;;13.40;36.89;101707.28;5048976;28;20085;-66
2022/09/04 02:05:47;;;;;;;0.75;0.40;;;;;;;13.37;36.80;101712.69;5070405;28;20142;-63
2022/09/04 02:08:34;;;;;;;2.40;0.28;;;;;;;13.38;36.85;101696.00;5075174;28;20522;-63
2022/09/04 02:11:20;;;;;;;5.00;0.30;;;;;;;13.36;37.17;101714.44;5076091;28;20047;-64
2022/09/04 02:14:09;;;;;;;2.08;0.20;;;;;;;13.26;37.35;101711.31;5073278;28;20147;-65
2022/09/04 02:17:03;;;;;;;2.40;0.40;;;;;;;13.15;37.84;101707.38;5077607;28;20161;-65
2022/09/04 02:19:52;;;;;;;0.88;0.35;;;;;;;13.11;37.82;101712.72;5073659;28;20036;-66
2022/09/04 02:22:27;;;;;;;2.05;0.25;;;;;;;13.15;37.67;101710.84;5075053;28;20052;-65
2022/09/04 02:25:13;;;;;;;3.25;0.40;;;;;;;13.11;37.90;101715.34;5077939;28;20134;-66
2022/09/04 02:27:59;;;;;;;1.50;0.20;;;;;;;13.06;38.24;101712.06;5078254;28;20032;-65
2022/09/04 02:30:34;;;;;;;2.45;0.20;;;;;;;13.19;37.95;101712.47;5077125;28;20031;-66
2022/09/04 02:33:21;;;;;;;0.50;0.28;;;;;;;13.03;37.99;101712.19;5073648;28;20044;-66
2022/09/04 02:36:01;;;;;;;2.40;0.30;;;;;;;13.10;38.29;101715.44;5075929;28;20166;-66
2022/09/04 02:38:48;;;;;;;3.35;0.30;;;;;;;13.04;38.04;101718.28;5069391;28;20047;-66
2022/09/04 02:41:19;;;;;;;0.75;0.20;;;;;;;13.13;38.21;101719.72;5078301;28;20484;-66
2022/09/04 02:44:01;;;;;;;1.77;0.40;;;;;;;12.98;38.29;101706.25;5079296;28;20139;-66
2022/09/04 02:47:11;;;;;;;1.02;0.60;;;;;;;13.10;38.21;101708.41;5077774;28;20313;-66
2022/09/04 02:50:19;;;;;;;1.00;0.30;;;;;;;13.07;38.25;101713.78;5068503;28;20040;-65
2022/09/04 02:53:07;;;;;;;1.00;0.30;;;;;;;13.00;38.73;101706.19;5077512;28;20041;-66
2022/09/04 02:56:07;;;;;;;0.60;0.20;;;;;;;12.87;39.06;101711.00;5079861;28;20032;-66
2022/09/04 02:58:43;;;;;;;2.92;0.20;;;;;;;12.88;38.89;101708.34;5076656;28;20127;-66
2022/09/04 03:01:17;;;;;;;5.72;0.40;;;;;;;12.91;38.91;101712.63;5078054;28;20032;-67
2022/09/04 03:04:03;;;;;;;0.75;0.28;;;;;;;12.88;39.09;101713.59;5079007;28;20622;-65
2022/09/04 03:06:56;;;;;;;1.40;0.50;;;;;;;12.83;39.05;101712.91;5079173;28;20051;-65
2022/09/04 03:09:52;;;;;;;1.63;0.30;;;;;;;12.82;39.40;101710.31;5076276;28;20101;-65
2022/09/04 03:12:43;;;;;;;2.17;0.40;;;;;;;12.84;38.96;101716.38;5078124;28;20059;-65
2022/09/04 03:15:17;;;;;;;0.90;0.22;;;;;;;12.88;39.13;101717.97;5078524;28;20341;-66
2022/09/04 03:17:53;;;;;;;1.50;0.25;;;;;;;12.78;39.19;101716.59;5078301;28;20050;-65
2022/09/04 03:20:22;;;;;;;2.10;0.28;;;;;;;12.76;39.22;101723.66;5075229;28;20104;-66
2022/09/04 03:23:08;;;;;;;4.78;0.40;;;;;;;12.81;39.34;101721.75;5077722;28;20090;-66
2022/09/04 03:25:52;;;;;;;0.93;0.30;;;;;;;12.88;39.18;101728.47;5078468;28;20047;-67
2022/09/04 03:28:32;;;;;;;1.38;0.30;;;;;;;12.82;39.41;101729.53;5077537;28;20072;-66
2022/09/04 03:31:14;;;;;;;0.57;0.20;;;;;;;12.79;39.50;101728.81;5078935;28;20035;-66
2022/09/04 03:33:52;;;;;;;2.65;0.57;;;;;;;12.69;39.76;101737.00;5077082;28;20096;-68
2022/09/04 03:36:33;;;;;;;0.90;0.55;;;;;;;12.80;39.60;101741.00;5093869;28;20439;-66
2022/09/04 03:39:22;;;;;;;1.13;0.20;;;;;;;12.62;39.91;101747.72;5072375;28;20043;-66
2022/09/04 03:42:05;;;;;;;1.48;0.32;;;;;;;12.61;40.21;101746.03;5093697;28;20143;-67
2022/09/04 03:44:36;;;;;;;1.85;0.30;;;;;;;12.50;40.24;101747.25;5078430;28;20040;-67
2022/09/04 03:47:25;;;;;;;2.15;0.30;;;;;;;12.46;40.51;101743.00;5078109;28;20044;-67
2022/09/04 03:50:06;;;;;;;1.00;0.50;;;;;;;12.44;40.46;101749.22;5077633;28;20028;-68
2022/09/04 03:52:56;;;;;;;1.02;0.35;;;;;;;12.41;40.73;101749.34;5092596;28;20137;-69
2022/09/04 03:55:46;;;;;;;2.55;0.38;;;;;;;12.56;40.08;101754.06;5094180;28;20043;-66
2022/09/04 03:58:15;;;;;;;1.15;0.30;;;;;;;12.61;39.92;101754.75;5075521;28;20044;-69
2022/09/04 04:01:34;;;;;;;1.30;0.43;;;;;;;12.57;40.15;101755.75;5080187;28;20612;-69
2022/09/04 04:04:14;;;;;;;2.50;0.30;;;;;;;12.49;40.77;101752.53;5059956;28;20047;-67
2022/09/04 04:06:49;;;;;;;0.98;0.38;;;;;;;12.50;40.55;101759.50;5080436;28;20492;-67
2022/09/04 04:09:39;;;;;;;2.25;0.30;;;;;;;12.45;40.64;101751.78;5076965;28;20074;-68
2022/09/04 04:12:18;;;;;;;2.08;0.40;;;;;;;12.39;40.97;101753.75;5092605;28;20133;-69
2022/09/04 04:14:58;;;;;;;0.55;0.40;;;;;;;12.39;40.79;101762.47;5077956;28;20046;-63
2022/09/04 04:17:33;;;;;;;11.35;0.85;;;;;;;12.27;41.22;101757.66;5078009;28;21052;-68
2022/09/04 04:20:35;;;;;;;4.63;0.40;;;;;;;12.29;41.22;101756.69;5094504;28;20060;-65
2022/09/04 04:23:07;;;;;;;1.33;0.30;;;;;;;12.30;41.01;101765.41;5058183;28;20048;-66
2022/09/04 04:25:51;;;;;;;;;;;;;;;12.23;41.59;101772.63;5078606;28;20032;-66
2022/09/04 04:28:29;;;;;;;0.80;0.50;;;;;;;12.24;41.56;101769.06;5074397;28;19927;-66
2022/09/04 04:31:08;;;;;;;1.33;0.43;;;;;;;12.19;41.48;101770.16;5077642;28;20050;-66
2022/09/04 04:34:09;;;;;;;1.92;0.43;;;;;;;12.18;41.46;101769.31;5077719;28;20044;-65
2022/09/04 04:36:55;;;;;;;1.83;0.40;;;;;;;12.19;41.81;101767.53;5067183;28;20067;-65
2022/09/04 04:39:35;;;;;;;2.03;0.50;;;;;;;12.07;42.08;101768.78;5075352;28;20548;-65
2022/09/04 04:42:04;;;;;;;2.53;0.40;;;;;;;12.19;41.78;101773.63;5077458;28;20040;-64
2022/09/04 04:47:51;;;;;;;1.88;0.57;;;;;;;12.15;42.09;101782.47;5077603;28;20051;-64
2022/09/04 04:50:27;;;;;;;1.02;0.30;;;;;;;12.15;41.78;101785.09;5076301;28;20179;-67
2022/09/04 04:53:13;;;;;;;0.65;0.43;;;;;;;12.24;41.84;101781.34;5075408;28;20036;-65
2022/09/04 04:56:30;;;;;;;2.03;0.68;;;;;;;12.25;41.89;101780.44;5079052;28;20036;-67
2022/09/04 04:59:19;;;;;;;1.00;0.30;;;;;;;12.17;42.27;101779.81;5047507;28;20066;-65
2022/09/04 05:01:51;;;;;;;3.45;0.40;;;;;;;12.18;41.94;101787.66;5076942;28;20040;-64
2022/09/04 05:04:41;;;;;;;2.05;0.35;;;;;;;12.08;42.11;101794.06;5077762;28;20119;-65
2022/09/04 05:07:39;;;;;;;0.80;0.30;;;;;;;12.18;42.19;101790.25;5075638;28;20054;-66
2022/09/04 05:10:20;;;;;;;1.00;0.35;;;;;;;12.05;42.33;101791.56;5076135;28;20553;-65
2022/09/04 05:13:10;;;;;;;2.08;0.50;;;;;;;12.32;41.92;101799.44;5078268;28;20080;-65
2022/09/04 05:15:45;;;;;;;3.00;0.55;;;;;;;12.29;42.06;101808.28;5078182;28;20044;-65
2022/09/04 05:18:33;;;;;;;1.30;0.32;;;;;;;12.27;42.16;101803.06;5075165;28;20044;-65
2022/09/04 05:21:06;;;;;;;1.05;0.40;;;;;;;12.39;41.70;101817.53;5077431;28;20464;-66
2022/09/04 05:23:37;;;;;;;2.63;0.40;;;;;;;12.43;41.60;101815.69;5077253;28;20040;-66
2022/09/04 05:26:17;;;;;;;2.03;0.33;;;;;;;12.61;41.07;101820.31;5076585;28;20071;-65
2022/09/04 05:29:25;;;;;;;3.53;0.47;;;;;;;12.62;41.06;101822.00;5075629;28;20738;-65
2022/09/04 05:32:11;;;;;;;1.45;0.63;;;;;;;12.82;40.94;101831.00;5073285;28;20052;-65
2022/09/04 05:35:03;;;;;;;1.80;0.40;;;;;;;12.90;40.85;101839.47;5078709;28;20040;-65
2022/09/04 05:37:49;;;;;;;4.13;0.30;;;;;;;13.47;39.73;101837.44;5075699;28;20032;-65
2022/09/04 05:40:56;;;;;;;1.45;0.50;;;;;;;13.74;39.22;101846.09;5074057;28;20462;-67
2022/09/04 05:43:40;;;;;;;2.30;0.70;;;;;;;13.61;39.08;101855.38;5052882;28;20139;-66
2022/09/04 05:46:46;;;;;;;1.15;0.30;;;;;;;13.66;39.05;101853.41;5075428;28;20031;-66
2022/09/04 05:49:17;;;;;;;1.85;0.30;;;;;;;13.80;39.14;101848.50;5047793;28;21149;-66
2022/09/04 05:51:57;;;;;;;3.43;0.60;;;;;;;13.98;38.42;101851.31;5077576;28;20563;-67
2022/09/04 05:54:45;;;;;;;1.30;0.30;;;;;;;14.04;38.42;101861.63;5075190;28;20919;-66
2022/09/04 05:57:36;;;;;;;3.65;0.52;;;;;;;15.10;36.72;101858.13;5064748;28;20051;-68
2022/09/04 06:00:17;;;;;;;1.58;0.35;;;;;;;16.61;34.14;101849.34;5075829;28;20071;-68
2022/09/04 06:03:03;;;;;;;3.40;0.50;;;;;;;18.02;31.38;101853.41;5070092;28;20140;-69
2022/09/04 06:05:57;;;;;;;0.98;0.30;;;;;;;19.60;28.78;101856.50;5091278;28;22186;-68
2022/09/04 06:08:41;;;;;;;1.50;0.50;;;;;;;19.50;28.65;101866.78;5073502;28;20046;-69
2022/09/04 06:11:48;;;;;;;3.42;0.90;;;;;;;18.61;30.11;101862.41;5071415;28;20028;-69
2022/09/04 06:14:56;;;;;;;0.98;0.28;;;;;;;19.88;28.17;101867.06;5061400;28;20044;-70
2022/09/04 06:17:34;;;;;;;1.10;0.35;;;;;;;19.44;28.79;101862.72;5074220;28;20121;-69
2022/09/04 06:20:05;;;;;;;1.40;0.55;;;;;;;18.76;29.72;101871.22;5073007;28;20147;-68
2022/09/04 06:23:07;;;;;;;1.20;0.30;;;;;;;17.89;31.29;101873.56;5074007;28;20043;-68
2022/09/04 06:25:55;;;;;;;1.63;0.85;;;;;;;17.93;31.62;101880.38;5077279;28;20036;-71
2022/09/04 06:28:39;;;;;;;2.85;0.60;;;;;;;17.37;31.89;101880.69;5071669;28;20771;-70
2022/09/04 06:31:17;;;;;;;2.63;0.70;;;;;;;16.80;32.95;101877.47;5073669;28;20050;-71
2022/09/04 06:34:20;;;;;;;1.45;0.57;;;;;;;17.39;32.27;101875.34;5074848;28;20059;-70
2022/09/04 06:37:01;;;;;;;1.52;0.60;;;;;;;17.61;31.60;101875.06;5075655;28;20035;-68
2022/09/04 06:39:41;;;;;;;6.82;0.68;;;;;;;18.45;30.65;101873.03;5071866;28;20514;-70
2022/09/04 06:42:26;;;;;;;2.33;0.82;;;;;;;20.00;27.82;101873.38;5071987;28;20419;-68
2022/09/04 06:45:29;;;;;;;5.78;0.30;;;;;;;20.94;26.71;101875.16;5075875;28;20115;-69
2022/09/04 06:48:17;;;;;;;4.00;0.43;;;;;;;22.12;25.60;101880.13;5072565;28;20071;-69
2022/09/04 06:50:57;;;;;;;2.15;0.30;;;;;;;22.16;24.75;101883.44;5075563;28;20024;-71
2022/09/04 06:53:45;;;;;;;0.77;0.30;;;;;;;21.74;25.57;101891.72;5087752;28;20032;-68
2022/09/04 06:56:27;;;;;;;4.18;0.73;;;;;;;22.80;24.24;101889.25;5074493;28;20036;-72
2022/09/04 06:58:52;;;;;;;2.83;0.70;;;;;;;22.93;23.23;101883.84;5069459;28;20058;-69
2022/09/04 07:01:18;;;;;;;1.13;0.43;;;;;;;23.06;23.20;101882.91;5076029;28;20040;-72
2022/09/04 07:04:04;;;;;;;4.38;0.85;;;;;;;22.37;23.39;101888.97;5073694;28;20050;-70
2022/09/04 07:06:46;;;;;;;1.20;0.65;;;;;;;23.04;23.07;101884.84;5076344;28;20161;-68
2022/09/04 07:09:17;;;;;;;2.40;0.60;;;;;;;23.90;22.09;101888.72;5069946;28;20056;-66
2022/09/04 07:11:42;;;;;;;2.95;0.75;;;;;;;23.70;21.96;101899.19;5074645;28;20031;-66
2022/09/04 07:14:18;;;;;;;3.22;0.80;;;;;;;23.75;21.75;101893.47;5075579;28;20104;-67
2022/09/04 07:17:02;;;;;;;1.90;0.70;;;;;;;23.81;22.16;101899.16;5074582;28;20032;-70
2022/09/04 07:19:39;;;;;;;1.20;0.57;;;;;;;23.78;22.62;101893.22;5088272;28;20078;-69
2022/09/04 07:22:22;;;;;;;1.27;0.40;;;;;;;22.85;23.03;101896.94;5091220;28;20032;-70
2022/09/04 07:24:56;;;;;;;2.15;0.47;;;;;;;23.20;22.70;101906.66;5095580;28;20500;-70
2022/09/04 07:27:59;;;;;;;1.77;0.80;;;;;;;24.70;21.28;101909.72;5076619;28;20058;-70
2022/09/04 07:30:29;;;;;;;7.03;0.57;;;;;;;24.35;21.62;101902.81;5079352;28;20031;-69
2022/09/04 07:33:01;;;;;;;1.17;0.60;;;;;;;23.89;22.12;101903.06;5068383;28;20393;-68
2022/09/04 07:35:37;;;;;;;2.03;0.60;;;;;;;24.45;21.07;101905.59;5078300;28;20062;-70
2022/09/04 07:38:28;;;;;;;2.30;0.45;;;;;;;24.91;20.79;101912.41;5076639;28;20036;-69
2022/09/04 07:41:15;;;;;;;3.72;0.43;;;;;;;25.19;21.15;101904.69;5076660;28;20039;-69
2022/09/04 07:43:51;;;;;;;0.80;0.40;;;;;;;25.91;20.09;101911.75;5076778;28;20657;-68
2022/09/04 07:46:25;;;;;;;5.90;0.70;;;;;;;25.48;20.47;101916.38;5070191;28;20038;-68
2022/09/04 07:49:16;;;;;;;2.47;0.65;;;;;;;25.56;20.15;101914.91;5077818;28;20040;-69
2022/09/04 07:51:52;;;;;;;2.42;0.80;;;;;;;25.22;20.68;101921.34;5080545;28;20135;-69
2022/09/04 07:54:28;;;;;;;1.05;0.60;;;;;;;25.52;21.00;101916.16;5073296;28;20036;-68
2022/09/04 07:57:21;;;;;;;2.05;0.47;;;;;;;26.08;20.07;101915.59;5079139;28;20040;-68
2022/09/04 07:59:55;;;;;;;3.08;0.77;;;;;;;26.04;20.14;101919.50;5078482;28;20747;-68
2022/09/04 08:02:58;;;;;;;1.17;0.65;;;;;;;26.76;19.26;101918.34;5076338;28;20042;-68
2022/09/04 08:06:01;;;;;;;1.25;0.63;;;;;;;27.29;18.83;101917.78;5079038;28;20279;-68
2022/09/04 08:08:57;;;;;;;3.72;0.50;;;;;;;27.75;18.57;101915.19;5077242;28;20322;-68
2022/09/04 08:11:44;;;;;;;2.67;0.77;;;;;;;26.24;19.41;101923.94;5077552;28;20539;-69
2022/09/04 08:14:18;;;;;;;4.75;0.80;;;;;;;26.01;20.39;101926.00;5073928;28;20048;-69
2022/09/04 08:16:56;;;;;;;2.50;0.73;;;;;;;25.55;20.63;101927.41;5094483;28;20043;-69
2022/09/04 08:19:55;;;;;;;2.67;0.70;;;;;;;25.06;21.30;101926.28;5076550;28;20551;-69
2022/09/04 08:22:46;;;;;;;1.15;0.70;;;;;;;25.21;21.32;101934.84;5078004;28;20040;-68
2022/09/04 08:25:18;;;;;;;3.73;1.13;;;;;;;25.27;21.12;101931.63;5091889;28;20384;-68
2022/09/04 08:28:19;;;;;;;3.70;0.60;;;;;;;25.95;20.44;101926.53;5068496;28;20285;-68
2022/09/04 08:31:04;;;;;;;2.50;0.70;;;;;;;25.42;21.37;101935.66;5078414;28;20596;-68
2022/09/04 08:33:52;;;;;;;2.42;0.90;;;;;;;25.61;20.94;101939.41;5063252;28;20044;-68
2022/09/04 08:36:27;;;;;;;3.72;0.88;;;;;;;26.03;20.62;101948.13;5076223;28;20106;-68
2022/09/04 08:39:09;;;;;;;4.28;1.08;;;;;;;25.94;20.72;101948.13;5051044;28;20055;-69
2022/09/04 08:41:47;;;;;;;4.43;0.82;;;;;;;25.64;21.42;101952.53;5078177;28;20028;-68
2022/09/04 08:44:34;;;;;;;2.40;0.98;;;;;;;24.74;22.30;101959.25;5073722;28;20424;-68
2022/09/04 08:47:16;;;;;;;3.83;1.30;;;;;;;25.15;22.04;101954.09;5091572;28;20032;-68
2022/09/04 08:50:00;;;;;;;1.50;0.80;;;;;;;24.58;22.44;101957.03;5080003;28;20040;-66
2022/09/04 08:52:44;;;;;;;4.38;0.88;;;;;;;24.44;23.08;101963.53;5062632;28;20050;-68
2022/09/04 08:55:30;;;;;;;1.92;1.10;;;;;;;24.47;23.16;101967.75;5076284;28;20064;-67
2022/09/04 08:58:04;;;;;;;3.58;1.23;;;;;;;24.00;23.49;101969.78;5064982;28;20036;-68
2022/09/04 09:00:39;;;;;;;2.70;0.82;;;;;;;23.62;23.67;101965.66;5090155;28;22101;-68
2022/09/04 09:03:41;;;;;;;4.55;0.95;;;;;;;23.02;24.80;101970.25;5076586;28;20661;-68
2022/09/04 09:06:31;;;;;;;5.88;1.00;;;;;;;22.52;25.63;101981.06;5074687;28;20065;-68
2022/09/04 09:09:15;;;;;;;4.78;0.70;;;;;;;22.31;25.92;101972.81;5076965;28;20500;-67
2022/09/04 09:12:38;;;;;;;6.60;3.00;;;;;;;22.66;26.19;101976.53;5077686;28;20019;-67
2022/09/04 09:15:22;;;;;;;4.68;0.75;;;;;;;22.97;25.61;101973.28;5012698;28;20045;-67
2022/09/04 09:18:01;;;;;;;1.50;0.70;;;;;;;23.02;25.07;101972.09;5060617;28;20032;-67
2022/09/04 09:20:28;;;;;;;4.10;0.93;;;;;;;23.10;25.69;101972.34;5090375;28;20040;-67
2022/09/04 09:23:21;;;;;;;2.28;1.42;;;;;;;23.25;24.78;101979.16;5083157;28;20043;-67
2022/09/04 09:26:14;;;;;;;4.68;0.98;;;;;;;22.83;25.43;101973.47;5078643;28;20409;-67
2022/09/04 09:29:07;;;;;;;1.77;1.13;;;;;;;22.98;25.49;101972.28;5076599;28;20044;-67
2022/09/04 09:31:37;;;;;;;3.35;0.90;;;;;;;22.99;25.12;101968.69;5078235;28;20051;-66
2022/09/04 09:34:36;;;;;;;3.80;1.38;;;;;;;22.42;25.88;101977.34;5075105;28;20051;-67
2022/09/04 09:37:24;;;;;;;4.13;1.92;;;;;;;22.36;25.76;101972.47;5018369;28;20050;-68
2022/09/04 09:40:21;;;;;;;9.32;1.52;;;;;;;22.67;25.84;101968.41;5072894;28;20103;-67
2022/09/04 09:42:47;;;;;;;3.80;1.05;;;;;;;22.61;26.18;101974.19;5077375;28;20040;-67
2022/09/04 09:45:25;;;;;;;2.75;1.63;;;;;;;23.20;25.76;101971.50;5076250;28;20501;-67
2022/09/04 09:48:16;;;;;;;2.25;1.48;;;;;;;22.79;25.60;101974.69;5093130;28;20062;-67
2022/09/04 09:51:12;;;;;;;4.93;1.92;;;;;;;23.06;25.54;101973.56;5075602;28;20077;-67
2022/09/04 09:53:47;;;;;;;1.73;1.20;;;;;;;23.37;25.48;101962.25;5089099;28;20079;-66
2022/09/04 09:56:27;;;;;;;2.33;1.50;;;;;;;22.95;25.41;101967.22;5087827;28;20055;-68
2022/09/04 09:59:25;;;;;;;6.03;2.77;;;;;;;23.52;24.83;101962.00;5074194;28;20040;-67
2022/09/04 10:01:59;;;;;;;1.63;1.00;;;;;;;24.01;24.58;101961.66;5090919;28;20043;-67
2022/09/04 10:05:12;;;;;;;1.65;0.98;;;;;;;23.81;24.38;101960.56;5076170;28;20686;-66
2022/09/04 10:08:15;;;;;;;2.20;0.82;;;;;;;23.76;25.10;101962.72;5090019;28;20115;-66
2022/09/04 10:11:22;;;;;;;1.98;0.93;;;;;;;24.00;24.17;101961.78;5069066;28;20028;-69
2022/09/04 10:14:03;;;;;;;1.98;0.98;;;;;;;23.42;25.09;101959.22;5074678;28;20052;-66
2022/09/04 10:17:10;;;;;;;2.20;1.10;;;;;;;23.95;24.43;101955.97;5088569;28;20074;-67
2022/09/04 10:20:07;;;;;;;2.00;1.27;;;;;;;23.12;24.93;101946.41;4978168;28;20038;-67
2022/09/04 10:22:41;;;;;;;2.13;1.10;;;;;;;22.65;25.94;101953.50;5074961;28;20063;-67
2022/09/04 10:25:16;;;;;;;1.80;0.90;;;;;;;22.91;25.58;101944.41;5090190;28;20130;-67
2022/09/04 10:27:45;;;;;;;5.07;0.80;;;;;;;23.56;25.10;101950.13;5062614;28;20058;-66
2022/09/04 10:30:27;;;;;;;10.02;1.52;;;;;;;23.47;25.20;101950.84;5075256;28;20587;-67
2022/09/04 10:33:04;;;;;;;4.93;1.55;;;;;;;23.16;24.97;101950.53;5075582;28;20036;-67
2022/09/04 10:35:51;;;;;;;1.95;0.98;;;;;;;24.20;24.50;101944.13;5076218;28;20119;-68
2022/09/04 10:38:33;;;;;;;2.17;1.30;;;;;;;24.54;24.55;101946.72;5063679;28;20063;-68
2022/09/04 10:41:23;;;;;;;2.20;0.70;;;;;;;24.23;24.32;101946.53;5075877;28;20050;-68
2022/09/04 10:44:14;;;;;;;2.35;1.27;;;;;;;24.22;24.41;101948.38;5058988;28;20032;-68
2022/09/04 10:47:01;;;;;;;2.45;0.60;;;;;;;23.93;24.76;101947.22;5078157;28;20040;-66
2022/09/04 10:49:51;;;;;;;3.25;1.02;;;;;;;23.93;24.60;101952.56;5075355;28;20036;-67
2022/09/04 10:52:29;;;;;;;3.13;1.05;;;;;;;24.05;24.91;101946.22;5072746;28;20139;-68
2022/09/04 10:55:13;;;;;;;3.33;0.88;;;;;;;24.49;23.51;101949.78;5077203;28;20077;-67
2022/09/04 10:58:09;;;;;;;4.85;1.02;;;;;;;23.91;24.56;101949.19;5095666;28;20071;-66
2022/09/04 11:00:51;;;;;;;1.92;1.05;;;;;;;23.94;24.77;101956.94;5065169;28;20696;-66
2022/09/04 11:03:32;;;;;;;5.15;1.10;;;;;;;24.09;24.56;101949.50;5078331;28;20039;-66
2022/09/04 11:06:07;;;;;;;3.25;1.10;;;;;;;25.09;23.14;101946.59;5096573;28;20036;-69
2022/09/04 11:08:42;;;;;;;3.17;0.70;;;;;;;24.39;23.67;101949.69;5094668;28;20101;-67
2022/09/04 11:11:39;;;;;;;3.53;1.00;;;;;;;24.55;23.65;101943.94;5076858;28;20592;-66
2022/09/04 11:14:29;;;;;;;2.58;0.88;;;;;;;24.62;23.80;101941.59;5077852;28;20068;-66
2022/09/04 11:17:11;;;;;;;2.38;0.98;;;;;;;24.83;23.69;101946.94;5095682;28;20027;-67
2022/09/04 11:20:22;;;;;;;6.53;1.30;;;;;;;24.82;23.30;101948.78;5077522;28;20040;-66
2022/09/04 11:23:21;;;;;;;2.85;1.15;;;;;;;24.80;23.40;101945.38;5062635;28;20066;-66
2022/09/04 11:26:01;;;;;;;1.75;0.90;;;;;;;24.15;24.32;101949.03;5082065;28;20104;-66
2022/09/04 11:28:41;;;;;;;2.53;1.05;;;;;;;24.73;23.21;101940.72;5079671;28;20591;-66
2022/09/04 11:31:26;;;;;;;2.10;1.10;;;;;;;24.90;23.46;101945.44;5078173;28;20036;-67
2022/09/04 11:34:12;;;;;;;5.25;1.65;;;;;;;24.72;23.79;101944.34;5079157;28;20488;-67
2022/09/04 11:37:04;;;;;;;1.90;0.82;;;;;;;25.05;22.89;101952.19;5078770;28;20036;-66
2022/09/04 11:39:52;;;;;;;2.90;0.98;;;;;;;24.70;23.34;101946.28;5076722;28;20105;-69
2022/09/04 11:42:34;;;;;;;2.72;0.70;;;;;;;24.90;23.57;101950.78;5074121;28;20481;-66
2022/09/04 11:45:04;;;;;;;;;;;;;;;25.32;23.12;101937.44;5080721;28;20032;-70
2022/09/04 11:48:00;;;;;;;3.10;0.90;;;;;;;24.63;23.39;101943.28;5069041;28;21428;-67
2022/09/04 11:50:55;;;;;;;3.33;1.20;;;;;;;24.34;23.55;101940.31;5076973;28;20119;-68
2022/09/04 11:53:36;;;;;;;5.28;0.73;;;;;;;24.92;23.32;101937.31;5084293;28;20051;-67
2022/09/04 11:56:33;;;;;;;1.00;0.80;;;;;;;24.48;23.18;101948.09;5079943;28;20028;-68
2022/09/04 11:59:35;;;;;;;2.33;0.65;;;;;;;25.08;23.42;101940.38;5091767;28;20052;-69
2022/09/04 12:02:24;;;;;;;1.73;0.80;;;;;;;25.31;22.51;101941.09;5093890;28;20053;-68
2022/09/04 12:05:09;;;;;;;3.03;0.80;;;;;;;25.18;22.71;101937.78;5058569;28;20086;-67
2022/09/04 12:08:18;;;;;;;2.97;1.25;;;;;;;25.42;22.75;101943.69;5074743;28;20036;-68
2022/09/04 12:10:54;;;;;;;2.45;0.98;;;;;;;25.26;22.55;101932.59;5095116;28;20085;-67
2022/09/04 12:13:32;;;;;;;2.08;0.88;;;;;;;25.55;22.63;101938.13;5072118;28;20117;-67
2022/09/04 12:16:42;;;;;;;6.47;1.60;;;;;;;25.38;22.31;101934.22;5077609;28;20434;-68
2022/09/04 12:19:25;;;;;;;1.65;0.85;;;;;;;25.55;22.16;101942.63;5072605;28;20048;-69
2022/09/04 12:22:16;;;;;;;3.10;0.77;;;;;;;25.66;23.06;101939.84;5075391;28;20392;-70
2022/09/04 12:25:10;;;;;;;2.47;0.93;;;;;;;25.51;22.59;101951.88;5077151;28;20578;-67
2022/09/04 12:28:01;;;;;;;1.10;0.70;;;;;;;25.34;23.24;101942.66;5058852;28;20048;-68
2022/09/04 12:30:52;;;;;;;0.98;0.50;;;;;;;25.24;23.00;101940.78;5086587;28;20077;-69
2022/09/04 12:33:49;;;;;;;1.63;0.98;;;;;;;24.73;23.55;101933.53;5073045;28;20035;-67
2022/09/04 12:36:43;;;;;;;3.38;0.70;;;;;;;25.01;22.68;101950.75;5074188;28;20033;-67
2022/09/04 12:39:24;;;;;;;4.35;1.65;;;;;;;24.99;22.58;101947.38;5060713;28;20612;-67
2022/09/04 12:42:15;;;;;;;2.05;0.60;;;;;;;24.87;23.01;101948.41;5067037;28;20044;-67
2022/09/04 12:44:49;;;;;;;1.23;0.60;;;;;;;25.07;22.55;101944.06;5049497;28;20036;-69
2022/09/04 12:47:31;;;;;;;3.58;0.70;;;;;;;25.20;22.77;101941.19;5050577;28;20112;-68
2022/09/04 12:50:21;;;;;;;1.85;0.82;;;;;;;25.40;22.38;101940.28;5046201;28;20028;-66